createdAt,value
2022-12-07T00:01:23.138Z,8.10
2022-12-07T00:03:53.467Z,7.90
2022-12-07T00:06:21.993Z,7.10
2022-12-07T00:08:49.723Z,8.07
2022-12-07T00:11:23.553Z,8.02
2022-12-07T00:13:58.200Z,7.57
2022-12-07T00:16:29.239Z,9.10
2022-12-07T00:18:56.702Z,7.25
2022-12-07T00:21:27.943Z,7.80
2022-12-07T00:23:56.982Z,7.78
2022-12-07T00:26:37.144Z,7.13
2022-12-07T00:29:16.690Z,6.88
2022-12-07T00:31:43.947Z,8.63
2022-12-07T00:34:18.781Z,8.13
2022-12-07T00:36:46.525Z,7.88
2022-12-07T00:39:14.395Z,8.20
2022-12-07T00:41:42.001Z,8.60
2022-12-07T00:44:09.194Z,7.38
2022-12-07T00:46:36.500Z,8.35
2022-12-07T00:49:04.236Z,7.57
2022-12-07T00:51:31.342Z,9.13
2022-12-07T00:53:58.573Z,8.10
2022-12-07T00:56:29.170Z,8.50
2022-12-07T00:59:02.723Z,8.45
2022-12-07T01:01:34.018Z,8.57
2022-12-07T01:04:04.801Z,8.88
2022-12-07T01:06:32.413Z,8.65
2022-12-07T01:09:00.824Z,9.43
2022-12-07T01:11:31.274Z,9.48
2022-12-07T01:14:01.947Z,8.95
2022-12-07T01:16:32.765Z,8.10
2022-12-07T01:19:01.603Z,9.80
2022-12-07T01:21:37.017Z,10.10
2022-12-07T01:24:07.919Z,9.07
2022-12-07T01:26:35.167Z,9.10
2022-12-07T01:29:02.768Z,8.38
2022-12-07T01:31:30.726Z,8.15
2022-12-07T01:34:00.732Z,8.50
2022-12-07T01:36:33.281Z,8.05
2022-12-07T01:39:05.000Z,9.38
2022-12-07T01:41:37.003Z,8.03
2022-12-07T01:47:34.341Z,8.07
2022-12-07T01:50:01.912Z,8.38
2022-12-07T01:52:34.477Z,6.93
2022-12-07T01:55:09.966Z,7.78
2022-12-07T01:57:44.827Z,9.00
2022-12-07T02:00:12.981Z,7.35
2022-12-07T02:03:19.812Z,7.97
2022-12-07T02:05:49.210Z,6.70
2022-12-07T02:08:18.521Z,7.13
2022-12-07T02:10:45.751Z,7.07
2022-12-07T02:13:19.603Z,6.38
2022-12-07T02:16:17.407Z,6.80
2022-12-07T02:19:22.435Z,6.13
2022-12-07T02:23:13.864Z,4.63
2022-12-07T02:26:47.643Z,4.15
2022-12-07T02:29:44.483Z,5.60
2022-12-07T02:36:40.668Z,7.30
2022-12-07T02:39:24.414Z,6.03
2022-12-07T02:42:00.077Z,6.55
2022-12-07T02:44:29.448Z,7.50
2022-12-07T02:47:06.055Z,8.00
2022-12-07T02:49:34.721Z,7.68
2022-12-07T02:52:01.990Z,8.52
2022-12-07T02:54:29.291Z,9.00
2022-12-07T02:57:50.946Z,7.95
2022-12-07T03:00:21.686Z,7.93
2022-12-07T03:03:16.060Z,8.02
2022-12-07T03:06:29.880Z,7.88
2022-12-07T03:09:48.676Z,9.20
2022-12-07T03:12:25.465Z,8.13
2022-12-07T03:15:15.730Z,9.30
2022-12-07T03:17:47.303Z,9.38
2022-12-07T03:20:20.448Z,9.25
2022-12-07T03:22:48.612Z,10.02
2022-12-07T03:25:18.474Z,9.20
2022-12-07T03:27:57.060Z,9.98
2022-12-07T03:30:32.953Z,9.45
2022-12-07T03:33:09.861Z,9.93
2022-12-07T03:36:07.494Z,8.82
2022-12-07T03:39:00.838Z,10.30
2022-12-07T03:41:44.816Z,8.90
2022-12-07T03:44:13.835Z,11.07
2022-12-07T03:46:55.801Z,9.95
2022-12-07T03:49:49.708Z,6.72
2022-12-07T03:52:26.986Z,10.35
2022-12-07T03:55:23.804Z,8.70
2022-12-07T03:57:57.619Z,10.32
2022-12-07T04:00:25.150Z,8.23
2022-12-07T04:02:57.055Z,8.43
2022-12-07T04:05:24.863Z,8.27
2022-12-07T04:07:52.104Z,9.35
2022-12-07T04:10:19.949Z,9.30
2022-12-07T04:12:46.994Z,9.13
2022-12-07T04:15:14.360Z,8.57
2022-12-07T04:17:41.611Z,8.93
2022-12-07T04:20:09.885Z,9.63
2022-12-07T04:22:37.270Z,9.30
2022-12-07T04:25:05.390Z,9.32
2022-12-07T04:27:32.647Z,9.23
2022-12-07T04:29:59.905Z,8.82
2022-12-07T04:32:27.165Z,7.70
2022-12-07T04:34:56.015Z,8.07
2022-12-07T04:37:24.246Z,8.70
2022-12-07T04:39:51.740Z,8.35
2022-12-07T04:42:18.837Z,8.13
2022-12-07T04:44:45.976Z,8.63
2022-12-07T04:47:13.215Z,8.90
2022-12-07T04:49:40.356Z,7.20
2022-12-07T04:52:07.415Z,8.35
2022-12-07T04:54:34.499Z,7.50
2022-12-07T04:57:01.703Z,7.82
2022-12-07T04:59:28.874Z,7.93
2022-12-07T05:01:55.933Z,9.15
2022-12-07T05:04:22.999Z,9.50
2022-12-07T05:06:50.268Z,8.43
2022-12-07T05:09:17.435Z,8.82
2022-12-07T05:11:44.503Z,9.32
2022-12-07T05:14:21.158Z,7.90
2022-12-07T05:16:51.900Z,7.28
2022-12-07T05:19:20.221Z,7.93
2022-12-07T05:21:48.341Z,7.93
2022-12-07T05:24:17.340Z,8.13
2022-12-07T05:26:45.520Z,7.72
2022-12-07T05:29:18.404Z,6.85
2022-12-07T05:31:46.703Z,5.38
2022-12-07T05:34:14.470Z,7.30
2022-12-07T05:36:41.511Z,6.35
2022-12-07T05:39:09.834Z,4.90
2022-12-07T05:41:56.553Z,5.32
2022-12-07T05:44:23.734Z,5.55
2022-12-07T05:46:50.791Z,5.63
2022-12-07T05:49:18.005Z,6.45
2022-12-07T05:51:47.684Z,4.75
2022-12-07T05:54:15.066Z,5.05
2022-12-07T05:56:42.246Z,4.70
2022-12-07T05:59:28.471Z,6.43
2022-12-07T06:02:02.399Z,4.82
2022-12-07T06:04:36.735Z,4.82
2022-12-07T06:07:04.833Z,5.50
2022-12-07T06:09:33.437Z,4.82
2022-12-07T06:12:19.987Z,5.30
2022-12-07T06:14:47.356Z,4.60
2022-12-07T06:17:15.405Z,4.53
2022-12-07T06:19:43.137Z,4.47
2022-12-07T06:22:14.240Z,3.95
2022-12-07T06:24:42.018Z,4.85
2022-12-07T06:27:10.357Z,4.78
2022-12-07T06:29:37.793Z,4.45
2022-12-07T06:32:06.010Z,4.43
2022-12-07T06:34:33.425Z,4.18
2022-12-07T06:37:00.469Z,4.28
2022-12-07T06:39:30.123Z,4.95
2022-12-07T06:41:58.554Z,4.15
2022-12-07T06:44:26.418Z,4.80
2022-12-07T06:47:12.414Z,4.75
2022-12-07T06:49:41.595Z,3.40
2022-12-07T06:52:08.652Z,3.17
2022-12-07T06:54:35.831Z,4.55
2022-12-07T06:57:03.013Z,5.45
2022-12-07T06:59:30.257Z,3.75
2022-12-07T07:01:57.650Z,3.85
2022-12-07T07:04:25.942Z,3.58
2022-12-07T07:06:59.644Z,4.88
2022-12-07T07:09:36.037Z,3.00
2022-12-07T07:12:03.631Z,3.50
2022-12-07T07:14:30.731Z,2.92
2022-12-07T07:16:58.202Z,4.05
2022-12-07T07:19:25.445Z,4.38
2022-12-07T07:21:52.678Z,3.30
2022-12-07T07:24:20.143Z,3.78
2022-12-07T07:26:47.356Z,3.28
2022-12-07T07:29:14.791Z,2.58
2022-12-07T07:31:41.997Z,3.22
2022-12-07T07:34:09.095Z,4.38
2022-12-07T07:36:36.295Z,3.08
2022-12-07T07:39:03.896Z,2.08
2022-12-07T07:41:31.891Z,3.15
2022-12-07T07:44:05.303Z,4.55
2022-12-07T07:46:42.986Z,3.95
2022-12-07T07:50:00.111Z,2.63
2022-12-07T07:54:01.102Z,5.72
2022-12-07T07:57:25.014Z,4.65
2022-12-07T08:01:05.033Z,5.03
2022-12-07T08:04:22.743Z,6.18
2022-12-07T08:06:50.006Z,5.95
2022-12-07T08:09:17.217Z,6.22
2022-12-07T08:11:44.555Z,6.55
2022-12-07T08:14:22.637Z,6.80
2022-12-07T08:17:12.067Z,6.75
2022-12-07T08:20:41.653Z,7.22
2022-12-07T08:23:08.477Z,7.25
2022-12-07T08:40:22.188Z,8.15
2022-12-07T08:42:53.160Z,7.70
2022-12-07T08:45:27.040Z,10.63
2022-12-07T08:48:13.744Z,12.40
2022-12-07T08:50:46.066Z,7.13
2022-12-07T08:53:50.396Z,7.72
2022-12-07T08:56:26.366Z,4.47
2022-12-07T08:59:02.978Z,9.68
2022-12-07T09:01:35.674Z,6.18
2022-12-07T09:04:13.016Z,7.10
2022-12-07T09:07:08.206Z,13.80
2022-12-07T09:09:40.373Z,6.15
2022-12-07T09:12:26.171Z,6.15
2022-12-07T09:14:53.591Z,9.75
2022-12-07T09:17:21.085Z,13.55
2022-12-07T09:19:48.597Z,5.30
2022-12-07T09:22:16.770Z,7.22
2022-12-07T09:24:46.056Z,4.70
2022-12-07T09:27:14.314Z,6.43
2022-12-07T09:29:41.711Z,5.30
2022-12-07T09:32:11.798Z,5.20
2022-12-07T09:34:39.569Z,6.63
2022-12-07T09:37:07.631Z,5.47
2022-12-07T09:39:35.004Z,10.55
2022-12-07T09:42:35.707Z,7.28
2022-12-07T09:45:07.363Z,5.32
2022-12-07T10:03:51.662Z,4.13
2022-12-07T10:06:19.368Z,4.75
2022-12-07T10:08:47.133Z,5.10
2022-12-07T10:11:16.304Z,4.28
2022-12-07T10:13:54.948Z,2.70
2022-12-07T10:16:42.468Z,6.78
2022-12-07T10:19:34.946Z,4.05
2022-12-07T10:22:19.691Z,2.97
2022-12-07T10:24:48.576Z,2.50
2022-12-07T10:27:33.657Z,5.45
2022-12-07T10:30:01.252Z,3.17
2022-12-07T10:32:37.884Z,6.18
2022-12-07T10:35:32.182Z,5.85
2022-12-07T10:38:21.425Z,4.57
2022-12-07T10:41:07.292Z,4.20
2022-12-07T10:43:48.394Z,4.80
2022-12-07T10:47:00.075Z,4.32
2022-12-07T10:50:03.283Z,5.18
2022-12-07T10:53:02.119Z,4.15
2022-12-07T10:56:37.358Z,4.13
2022-12-07T10:59:49.037Z,5.18
2022-12-07T11:02:48.886Z,4.53
2022-12-07T11:06:11.168Z,5.10
2022-12-07T11:19:22.757Z,6.15
2022-12-07T11:22:09.695Z,3.50
2022-12-07T11:25:29.282Z,6.10
2022-12-07T11:29:05.348Z,4.28
2022-12-07T11:31:50.105Z,4.55
2022-12-07T11:34:50.284Z,4.57
2022-12-07T11:37:38.323Z,4.32
2022-12-07T11:40:53.587Z,4.35
2022-12-07T11:43:38.530Z,14.77
2022-12-07T11:46:33.096Z,5.20
2022-12-07T11:49:13.863Z,5.65
2022-12-07T11:51:44.193Z,5.53
2022-12-07T11:54:33.309Z,4.60
2022-12-07T12:00:29.475Z,5.38
2022-12-07T12:03:13.111Z,11.20
2022-12-07T12:05:41.268Z,3.55
2022-12-07T12:18:57.225Z,5.03
2022-12-07T12:23:18.175Z,4.83
2022-12-07T12:26:54.524Z,3.17
2022-12-07T12:37:38.448Z,3.25
2022-12-07T12:40:18.163Z,1.50
2022-12-07T12:45:13.632Z,1.80
2022-12-07T13:20:58.169Z,3.60
2022-12-07T13:39:19.047Z,2.40
2022-12-07T13:42:27.527Z,5.05
2022-12-07T13:45:53.683Z,3.05
2022-12-07T14:27:38.970Z,4.45
2022-12-07T14:30:07.936Z,4.80
2022-12-07T14:32:39.310Z,4.72
2022-12-07T14:35:14.654Z,5.82
2022-12-07T14:37:46.084Z,5.47
2022-12-07T14:40:22.996Z,28.48
2022-12-07T14:42:57.732Z,6.03
2022-12-07T14:45:32.637Z,5.07
2022-12-07T14:54:10.630Z,2.97
2022-12-07T14:58:02.811Z,2.97
2022-12-07T15:00:33.453Z,3.00
2022-12-07T15:14:09.464Z,2.60
2022-12-07T15:17:07.269Z,3.10
2022-12-07T15:22:38.194Z,2.50
2022-12-07T15:25:07.590Z,2.10
2022-12-07T15:30:18.470Z,1.85
2022-12-07T15:32:50.782Z,2.25
2022-12-07T15:35:19.088Z,2.15
2022-12-07T15:37:48.427Z,2.50
2022-12-07T15:40:18.922Z,1.38
2022-12-07T15:42:47.391Z,2.03
2022-12-07T15:45:16.902Z,2.30
2022-12-07T15:48:26.188Z,2.50
2022-12-07T15:51:11.644Z,1.98
2022-12-07T15:53:45.786Z,2.20
2022-12-07T15:56:13.436Z,1.90
2022-12-07T15:58:41.743Z,2.10
2022-12-07T16:01:18.057Z,2.30
2022-12-07T16:03:46.581Z,2.80
2022-12-07T16:06:18.133Z,2.80
2022-12-07T16:08:47.104Z,2.83
2022-12-07T16:11:15.098Z,3.33
2022-12-07T16:13:42.894Z,3.00
2022-12-07T16:16:15.604Z,2.85
2022-12-07T16:18:50.466Z,3.03
2022-12-07T16:22:02.771Z,2.10
2022-12-07T16:32:29.354Z,2.28
2022-12-07T16:35:00.255Z,2.10
2022-12-07T16:37:27.865Z,1.90
2022-12-07T16:39:55.720Z,1.85
2022-12-07T16:42:23.375Z,2.30
2022-12-07T16:48:40.462Z,2.42
2022-12-07T16:51:13.487Z,1.83
2022-12-07T16:53:43.816Z,1.70
2022-12-07T16:56:39.543Z,2.40
2022-12-07T16:59:09.550Z,2.05
2022-12-07T17:01:37.275Z,1.95
2022-12-07T17:04:05.458Z,2.22
2022-12-07T17:06:33.580Z,2.33
2022-12-07T17:09:00.829Z,2.05
2022-12-07T17:11:44.376Z,2.70
2022-12-07T17:14:31.714Z,1.85
2022-12-07T17:17:01.809Z,2.55
2022-12-07T17:19:29.077Z,1.35
2022-12-07T17:21:56.360Z,1.80
2022-12-07T17:24:24.390Z,2.00
2022-12-07T17:43:33.338Z,2.55
2022-12-07T17:58:43.101Z,2.70
2022-12-07T18:02:13.069Z,2.75
2022-12-07T18:09:44.793Z,2.70
2022-12-07T18:12:15.645Z,2.47
2022-12-07T18:28:08.799Z,2.38
2022-12-07T18:31:13.271Z,2.05
2022-12-07T18:33:33.622Z,1.75
2022-12-07T18:36:03.738Z,2.30
2022-12-07T18:38:46.422Z,2.00
2022-12-07T19:00:13.915Z,2.03
2022-12-07T19:02:43.103Z,1.67
2022-12-07T19:05:32.894Z,1.83
2022-12-07T19:08:22.616Z,1.73
2022-12-07T19:19:07.404Z,3.20
2022-12-07T19:22:07.222Z,2.38
2022-12-07T19:24:37.279Z,2.53
2022-12-07T19:36:33.336Z,2.77
2022-12-07T19:39:00.913Z,3.20
2022-12-07T19:54:57.666Z,2.67
2022-12-07T19:57:35.838Z,3.35
2022-12-07T20:00:05.987Z,2.83
2022-12-07T20:02:54.730Z,4.15
2022-12-07T20:05:49.011Z,2.53
2022-12-07T20:08:35.392Z,2.95
2022-12-07T20:11:25.946Z,3.97
2022-12-07T20:13:53.878Z,2.38
2022-12-07T20:16:21.844Z,3.53
2022-12-07T20:18:55.943Z,3.15
2022-12-07T20:21:26.551Z,2.88
2022-12-07T20:23:55.037Z,3.30
2022-12-07T20:26:25.336Z,2.60
2022-12-07T20:29:09.067Z,3.13
2022-12-07T20:31:39.367Z,3.30
2022-12-07T20:34:34.568Z,3.28
2022-12-07T20:37:02.575Z,2.42
2022-12-07T20:39:31.873Z,3.05
2022-12-07T20:42:22.536Z,3.17
2022-12-07T20:44:51.743Z,3.25
2022-12-07T20:47:20.160Z,3.10
2022-12-07T20:49:48.860Z,3.17
2022-12-07T20:52:20.909Z,1.50
2022-12-07T20:57:19.757Z,1.88
2022-12-07T20:59:47.609Z,2.35
2022-12-07T21:02:23.859Z,2.88
2022-12-07T21:19:09.558Z,3.65
2022-12-07T21:21:41.797Z,2.90
2022-12-07T21:24:12.665Z,3.30
2022-12-07T21:26:41.980Z,3.17
2022-12-07T22:01:38.225Z,3.57
2022-12-07T22:04:14.496Z,3.33
2022-12-07T22:06:42.333Z,3.22
2022-12-07T22:09:10.014Z,2.50
2022-12-07T22:11:37.945Z,3.25
2022-12-07T22:14:25.420Z,3.58
2022-12-07T22:16:53.559Z,4.05
2022-12-07T22:19:20.889Z,3.00
2022-12-07T22:21:48.145Z,2.38
2022-12-07T22:24:16.175Z,3.05
2022-12-07T22:26:44.148Z,3.28
2022-12-07T22:29:12.548Z,2.15
2022-12-07T22:31:41.213Z,3.45
2022-12-07T22:34:18.905Z,3.55
2022-12-07T22:36:46.773Z,2.80
2022-12-07T22:39:14.569Z,3.78
2022-12-07T22:41:42.104Z,3.03
2022-12-07T22:44:10.767Z,3.28
2022-12-07T22:53:17.658Z,2.85
2022-12-07T22:56:04.893Z,2.85
2022-12-07T22:59:05.234Z,2.65
2022-12-07T23:02:03.310Z,2.60
2022-12-07T23:30:52.513Z,3.20
2022-12-07T23:57:02.105Z,3.03
